Time;durP1;ratioP1;P1;durP2;ratioP2;P2;SDS_P1;SDS_P2;PMS_P1;PMS_P2;Temp;Humidity;BMP_temperature;BMP_pressure;BME280_temperature;BME280_humidity;BME280_pressure;Samples;Min_cycle;Max_cycle;Signal;HPM_P1;HPM_P2
2022/11/12 00:00:53;;;;;;;34.67;18.90;;;;;;;;;;5075663;28;20039;-96
2022/11/12 00:04:02;;;;;;;38.53;20.85;;;;;;;;;;5061644;28;20032;-96
2022/11/12 00:06:33;;;;;;;31.83;18.75;;;;;;;;;;5073794;28;20036;-96
2022/11/12 00:08:59;;;;;;;31.83;18.38;;;;;;;;;;5059349;28;20024;-95
2022/11/12 00:11:32;;;;;;;56.45;28.77;;;;;;;;;;5060182;28;20088;-96
2022/11/12 00:13:59;;;;;;;54.42;25.90;;;;;;;;;;5059356;28;20020;-94
2022/11/12 00:16:42;;;;;;;71.00;32.85;;;;;;;;;;5057872;28;20024;-96
2022/11/12 00:19:08;;;;;;;57.83;27.23;;;;;;;;;;5058458;28;20028;-94
2022/11/12 00:21:34;;;;;;;67.95;30.52;;;;;;;;;;5058955;28;20036;-95
2022/11/12 00:24:01;;;;;;;55.15;28.63;;;;;;;;;;5060566;28;20044;-94
2022/11/12 00:26:36;;;;;;;70.38;33.53;;;;;;;;;;5058449;28;20024;-96
2022/11/12 00:29:02;;;;;;;111.53;46.83;;;;;;;;;;5058799;28;20511;-95
2022/11/12 00:31:28;;;;;;;75.68;33.92;;;;;;;;;;5053530;28;20045;-94
2022/11/12 00:33:57;;;;;;;53.33;27.42;;;;;;;;;;5053577;28;20033;-95
2022/11/12 00:36:28;;;;;;;59.67;28.45;;;;;;;;;;5053734;28;20039;-95
2022/11/12 00:39:06;;;;;;;54.38;28.65;;;;;;;;;;5055180;28;20104;-95
2022/11/12 00:42:00;;;;;;;62.85;30.88;;;;;;;;;;5034329;28;20043;-96
2022/11/12 00:44:28;;;;;;;77.45;36.80;;;;;;;;;;5017187;28;20034;-94
2022/11/12 00:47:02;;;;;;;54.53;27.67;;;;;;;;;;5017095;28;20034;-96
2022/11/12 00:49:40;;;;;;;50.25;28.70;;;;;;;;;;5019152;28;20417;-95
2022/11/12 00:52:09;;;;;;;50.53;28.42;;;;;;;;;;5017360;28;20041;-96
2022/11/12 00:54:39;;;;;;;100.75;47.70;;;;;;;;;;5017519;28;20397;-95
2022/11/12 00:57:14;;;;;;;74.75;38.47;;;;;;;;;;5016067;28;20029;-96
2022/11/12 00:59:40;;;;;;;66.57;34.05;;;;;;;;;;5016915;28;20033;-95
2022/11/12 01:02:06;;;;;;;82.78;40.72;;;;;;;;;;5016409;28;20204;-95
2022/11/12 01:04:34;;;;;;;58.63;32.53;;;;;;;;;;5018074;28;20049;-96
2022/11/12 01:07:00;;;;;;;61.95;34.28;;;;;;;;;;5039129;28;20037;-93
2022/11/12 01:09:29;;;;;;;49.92;27.77;;;;;;;;;;5019453;28;20040;-95
2022/11/12 01:11:56;;;;;;;76.57;39.08;;;;;;;;;;5023513;28;20036;-96
2022/11/12 01:14:29;;;;;;;61.28;32.30;;;;;;;;;;5053796;28;20060;-94
2022/11/12 01:17:01;;;;;;;48.03;27.15;;;;;;;;;;5045622;28;20025;-95
2022/11/12 01:19:30;;;;;;;52.13;31.33;;;;;;;;;;5034678;28;20039;-96
2022/11/12 01:22:01;;;;;;;65.80;32.50;;;;;;;;;;5033289;28;20041;-96
2022/11/12 01:24:33;;;;;;;52.03;29.38;;;;;;;;;;5032920;28;20021;-95
2022/11/12 01:26:59;;;;;;;41.80;23.55;;;;;;;;;;5030053;28;20022;-92
2022/11/12 01:29:47;;;;;;;;;;;;;;;;;;;;;
2022/11/12 01:32:16;;;;;;;40.45;23.20;;;;;;;;;;5034091;28;20052;-96
2022/11/12 01:34:42;;;;;;;56.92;30.00;;;;;;;;;;5012599;28;20120;-95
2022/11/12 01:37:09;;;;;;;38.67;22.05;;;;;;;;;;5016492;28;20029;-94
2022/11/12 01:39:35;;;;;;;41.05;24.23;;;;;;;;;;5016710;28;20092;-96
2022/11/12 01:42:04;;;;;;;52.83;29.63;;;;;;;;;;5016683;28;20022;-95
2022/11/12 01:44:31;;;;;;;47.30;25.58;;;;;;;;;;5017480;28;20568;-94
2022/11/12 01:47:00;;;;;;;51.92;30.25;;;;;;;;;;5017827;28;20049;-95
2022/11/12 01:49:41;;;;;;;49.33;27.73;;;;;;;;;;5018021;28;20371;-96
2022/11/12 01:52:26;;;;;;;66.93;33.30;;;;;;;;;;5018464;28;20116;-96
2022/11/12 01:54:54;;;;;;;83.88;41.85;;;;;;;;;;5017311;28;20026;-95
2022/11/12 01:57:27;;;;;;;79.05;41.38;;;;;;;;;;5017562;28;20161;-95
2022/11/12 02:00:00;;;;;;;89.20;43.05;;;;;;;;;;5018026;28;20025;-95
2022/11/12 02:02:31;;;;;;;52.92;26.83;;;;;;;;;;5017907;28;20114;-94
2022/11/12 02:04:57;;;;;;;80.45;39.72;;;;;;;;;;5017328;28;20033;-96
2022/11/12 02:10:26;;;;;;;42.45;22.27;;;;;;;;;;5073787;23;20049;-96
2022/11/12 02:15:38;;;;;;;61.38;34.25;;;;;;;;;;5058210;28;20040;-95
2022/11/12 02:18:05;;;;;;;50.50;29.88;;;;;;;;;;5040034;28;20033;-96
2022/11/12 02:20:38;;;;;;;50.55;27.10;;;;;;;;;;5039570;28;20068;-96
2022/11/12 02:23:07;;;;;;;38.30;22.45;;;;;;;;;;5039437;28;20033;-94
2022/11/12 02:31:36;;;;;;;47.83;27.15;;;;;;;;;;5048670;28;20090;-96
2022/11/12 02:34:02;;;;;;;36.35;21.60;;;;;;;;;;5039192;28;20086;-96
2022/11/12 02:36:38;;;;;;;35.58;20.17;;;;;;;;;;5039177;28;20025;-96
2022/11/12 02:39:12;;;;;;;38.22;23.73;;;;;;;;;;5040022;28;20032;-95
2022/11/12 02:41:38;;;;;;;38.95;24.48;;;;;;;;;;5053279;28;20032;-95
2022/11/12 02:44:09;;;;;;;32.15;18.58;;;;;;;;;;5048494;28;20044;-95
2022/11/12 02:46:35;;;;;;;31.52;20.25;;;;;;;;;;5040447;28;20021;-95
2022/11/12 02:49:09;;;;;;;25.95;16.33;;;;;;;;;;5039954;28;20037;-95
2022/11/12 02:51:38;;;;;;;29.17;18.33;;;;;;;;;;5039604;28;20052;-96
2022/11/12 02:54:06;;;;;;;37.40;22.48;;;;;;;;;;5039711;28;20025;-96
2022/11/12 02:56:36;;;;;;;26.25;16.48;;;;;;;;;;5057356;28;20481;-95
2022/11/12 02:59:02;;;;;;;25.92;16.98;;;;;;;;;;5039281;28;20060;-96
2022/11/12 03:01:29;;;;;;;32.08;18.33;;;;;;;;;;5039187;28;20025;-95
2022/11/12 03:03:55;;;;;;;35.92;19.40;;;;;;;;;;5039919;28;20029;-95
2022/11/12 03:06:23;;;;;;;31.33;17.60;;;;;;;;;;5039487;28;20028;-96
2022/11/12 03:08:49;;;;;;;41.95;20.45;;;;;;;;;;5039323;28;20041;-95
2022/11/12 03:11:16;;;;;;;51.58;22.98;;;;;;;;;;5039027;28;20029;-95
2022/11/12 03:13:45;;;;;;;37.03;18.35;;;;;;;;;;5040096;28;20033;-96
2022/11/12 03:16:12;;;;;;;43.17;20.40;;;;;;;;;;5038917;28;20021;-95
2022/11/12 03:18:48;;;;;;;;;;;;;;;;;;;;;
2022/11/12 03:21:22;;;;;;;39.45;20.95;;;;;;;;;;5056182;28;20025;-95
2022/11/12 03:23:48;;;;;;;44.15;19.30;;;;;;;;;;5038566;28;20483;-95
2022/11/12 03:26:14;;;;;;;44.13;20.42;;;;;;;;;;5038859;28;20400;-95
2022/11/12 03:28:40;;;;;;;43.83;22.38;;;;;;;;;;5038305;28;20060;-95
2022/11/12 03:31:06;;;;;;;54.45;26.70;;;;;;;;;;5038920;28;20021;-96
2022/11/12 03:33:35;;;;;;;44.88;22.27;;;;;;;;;;5039089;28;20025;-96
2022/11/12 03:36:01;;;;;;;37.40;20.45;;;;;;;;;;5039187;28;20029;-95
2022/11/12 03:38:28;;;;;;;44.05;21.77;;;;;;;;;;5039198;28;20025;-95
2022/11/12 03:40:54;;;;;;;38.97;20.60;;;;;;;;;;5040419;28;20021;-96
2022/11/12 03:43:20;;;;;;;62.13;32.50;;;;;;;;;;5039537;28;20191;-95
2022/11/12 03:45:46;;;;;;;41.40;22.98;;;;;;;;;;5038517;28;20509;-96
2022/11/12 03:48:12;;;;;;;43.70;23.15;;;;;;;;;;5039673;28;20028;-96
2022/11/12 03:50:38;;;;;;;43.83;22.95;;;;;;;;;;5038897;28;20025;-96
2022/11/12 03:53:05;;;;;;;47.40;26.08;;;;;;;;;;5039691;28;20075;-95
2022/11/12 03:55:31;;;;;;;37.10;20.88;;;;;;;;;;5038801;28;20025;-96
2022/11/12 03:57:58;;;;;;;41.55;21.88;;;;;;;;;;5038566;28;20485;-95
2022/11/12 04:00:25;;;;;;;59.47;33.45;;;;;;;;;;5038530;28;20021;-95
2022/11/12 04:02:51;;;;;;;60.40;29.73;;;;;;;;;;5038191;28;20517;-95
2022/11/12 04:10:48;;;;;;;47.30;25.83;;;;;;;;;;5056164;28;20056;-95
2022/11/12 04:13:37;;;;;;;31.83;20.05;;;;;;;;;;5037578;28;20508;-95
2022/11/12 04:21:56;;;;;;;51.22;26.60;;;;;;;;;;5057913;28;20040;-96
2022/11/12 04:27:17;;;;;;;35.45;20.80;;;;;;;;;;5055756;28;20102;-96
2022/11/12 04:32:37;;;;;;;33.95;20.77;;;;;;;;;;5056252;28;20128;-95
2022/11/12 04:35:04;;;;;;;31.27;19.98;;;;;;;;;;5038174;28;20462;-96
2022/11/12 04:37:43;;;;;;;66.57;33.45;;;;;;;;;;5037415;28;20032;-96
2022/11/12 04:45:43;;;;;;;44.40;24.90;;;;;;;;;;5055113;28;20078;-95
2022/11/12 04:48:09;;;;;;;27.90;18.05;;;;;;;;;;5036608;28;20025;-94
2022/11/12 04:50:36;;;;;;;43.60;22.98;;;;;;;;;;5036768;28;20032;-95
2022/11/12 04:53:02;;;;;;;44.67;24.90;;;;;;;;;;5037796;28;20461;-95
2022/11/12 04:55:28;;;;;;;43.53;21.52;;;;;;;;;;5037930;28;20033;-95
2022/11/12 04:57:59;;;;;;;51.45;26.33;;;;;;;;;;5037142;28;20090;-96
2022/11/12 05:00:33;;;;;;;39.13;21.20;;;;;;;;;;5037273;28;20110;-95
2022/11/12 05:02:59;;;;;;;43.33;21.00;;;;;;;;;;5036885;28;20078;-94
2022/11/12 05:05:25;;;;;;;46.95;23.35;;;;;;;;;;5037508;28;20029;-96
2022/11/12 05:07:51;;;;;;;32.00;19.48;;;;;;;;;;5038010;28;20033;-96
2022/11/12 05:10:18;;;;;;;40.35;20.75;;;;;;;;;;5037374;28;20041;-96
2022/11/12 05:12:44;;;;;;;34.90;20.20;;;;;;;;;;5038485;28;20079;-96
2022/11/12 05:15:11;;;;;;;35.95;20.08;;;;;;;;;;5037154;28;20033;-96
2022/11/12 05:17:42;;;;;;;45.17;22.05;;;;;;;;;;5036539;28;20021;-95
2022/11/12 05:20:09;;;;;;;45.72;23.35;;;;;;;;;;5037019;28;20033;-95
2022/11/12 05:22:35;;;;;;;32.42;17.45;;;;;;;;;;5036916;28;20021;-95
2022/11/12 05:25:01;;;;;;;40.80;19.73;;;;;;;;;;5036944;28;20025;-96
2022/11/12 05:27:27;;;;;;;28.23;14.38;;;;;;;;;;5037065;28;20032;-96
2022/11/12 05:29:54;;;;;;;27.95;15.98;;;;;;;;;;5037005;28;20116;-94
2022/11/12 05:32:20;;;;;;;38.15;17.40;;;;;;;;;;5036951;28;20484;-96
2022/11/12 05:34:46;;;;;;;53.67;24.20;;;;;;;;;;5037362;28;20029;-96
2022/11/12 05:37:13;;;;;;;96.90;33.60;;;;;;;;;;5037326;28;20021;-95
2022/11/12 05:39:39;;;;;;;104.75;37.92;;;;;;;;;;5037214;28;20025;-96
2022/11/12 05:42:05;;;;;;;112.57;38.50;;;;;;;;;;5037621;28;20079;-96
2022/11/12 05:44:31;;;;;;;142.93;49.38;;;;;;;;;;5039542;28;20129;-96
2022/11/12 05:46:58;;;;;;;158.90;59.80;;;;;;;;;;5040969;28;20033;-94
2022/11/12 05:49:24;;;;;;;210.98;78.60;;;;;;;;;;5040465;28;20362;-95
2022/11/12 05:51:50;;;;;;;256.35;96.60;;;;;;;;;;5047087;28;20051;-94
2022/11/12 05:54:16;;;;;;;265.95;102.97;;;;;;;;;;5059391;28;20497;-94
2022/11/12 05:59:46;;;;;;;245.95;100.28;;;;;;;;;;5484823;23;20063;-94
2022/11/12 06:02:15;;;;;;;189.07;78.60;;;;;;;;;;5042675;28;20017;-96
2022/11/12 06:04:41;;;;;;;134.57;58.80;;;;;;;;;;5042367;28;20020;-92
2022/11/12 06:07:07;;;;;;;117.05;48.72;;;;;;;;;;5048970;28;20098;-93
2022/11/12 06:09:33;;;;;;;101.63;44.80;;;;;;;;;;5050615;28;20028;-92
2022/11/12 06:11:59;;;;;;;71.13;34.20;;;;;;;;;;5059364;28;20098;-92
2022/11/12 06:14:51;;;;;;;100.53;43.70;;;;;;;;;;5049126;28;20036;-96
2022/11/12 06:17:23;;;;;;;57.45;30.00;;;;;;;;;;5039547;28;20028;-95
2022/11/12 06:19:49;;;;;;;67.28;33.10;;;;;;;;;;5038315;28;20039;-94
2022/11/12 06:22:15;;;;;;;65.90;34.15;;;;;;;;;;5039939;28;20033;-95
2022/11/12 06:24:44;;;;;;;58.85;31.00;;;;;;;;;;5040126;28;20028;-96
2022/11/12 06:27:10;;;;;;;61.80;31.23;;;;;;;;;;5040236;28;20033;-95
2022/11/12 06:29:39;;;;;;;52.13;27.27;;;;;;;;;;5040400;28;20021;-96
2022/11/12 06:32:05;;;;;;;52.17;26.17;;;;;;;;;;5040467;28;20045;-95
2022/11/12 06:34:31;;;;;;;39.63;21.75;;;;;;;;;;5040371;28;20025;-94
2022/11/12 06:36:57;;;;;;;58.13;28.98;;;;;;;;;;5039292;28;20039;-94
2022/11/12 06:39:23;;;;;;;43.40;23.38;;;;;;;;;;5039404;28;20021;-94
2022/11/12 06:41:55;;;;;;;40.10;23.60;;;;;;;;;;5057071;28;20052;-95
2022/11/12 06:44:21;;;;;;;45.97;25.27;;;;;;;;;;5039364;28;20037;-95
2022/11/12 06:46:47;;;;;;;52.92;28.77;;;;;;;;;;5039117;28;20111;-91
2022/11/12 06:49:13;;;;;;;53.90;27.85;;;;;;;;;;5038607;28;20076;-93
2022/11/12 06:51:40;;;;;;;48.28;27.17;;;;;;;;;;5038736;28;20028;-91
2022/11/12 06:54:06;;;;;;;40.40;24.75;;;;;;;;;;5038478;28;20025;-90
2022/11/12 06:56:32;;;;;;;49.22;27.45;;;;;;;;;;5037262;28;20033;-95
2022/11/12 06:58:58;;;;;;;53.35;28.05;;;;;;;;;;5054352;28;20051;-93
2022/11/12 07:01:25;;;;;;;49.88;28.35;;;;;;;;;;5058712;28;20052;-91
2022/11/12 07:03:53;;;;;;;53.97;30.55;;;;;;;;;;5058340;28;20047;-95
2022/11/12 07:06:20;;;;;;;50.45;31.85;;;;;;;;;;5058180;28;20020;-92
2022/11/12 07:08:50;;;;;;;51.92;33.60;;;;;;;;;;5059568;28;20036;-96
2022/11/12 07:11:41;;;;;;;46.33;28.42;;;;;;;;;;5059090;28;20017;-96
2022/11/12 07:14:22;;;;;;;46.25;27.73;;;;;;;;;;5060284;28;20472;-96
2022/11/12 07:16:48;;;;;;;53.03;30.70;;;;;;;;;;5058340;28;20041;-90
2022/11/12 07:19:14;;;;;;;43.50;28.02;;;;;;;;;;5058020;28;20055;-93
2022/11/12 07:21:40;;;;;;;42.20;23.55;;;;;;;;;;5058036;28;20025;-91
2022/11/12 07:24:07;;;;;;;44.58;25.83;;;;;;;;;;5058220;28;20480;-90
2022/11/12 07:26:33;;;;;;;38.30;24.02;;;;;;;;;;5057883;28;20024;-90
2022/11/12 07:28:59;;;;;;;39.80;24.75;;;;;;;;;;5066671;28;20449;-90
2022/11/12 07:31:25;;;;;;;30.88;20.33;;;;;;;;;;5062993;28;20109;-89
2022/11/12 07:33:51;;;;;;;35.47;22.05;;;;;;;;;;5057877;28;20035;-90
2022/11/12 07:36:18;;;;;;;31.27;21.00;;;;;;;;;;5057955;28;20116;-90
2022/11/12 07:38:45;;;;;;;33.20;20.50;;;;;;;;;;5057824;28;20039;-92
2022/11/12 07:41:13;;;;;;;39.42;22.65;;;;;;;;;;5059024;28;20120;-92
2022/11/12 07:43:40;;;;;;;34.80;19.27;;;;;;;;;;5059198;28;20051;-95
2022/11/12 07:46:20;;;;;;;30.02;17.60;;;;;;;;;;5042100;28;20063;-90
2022/11/12 07:48:46;;;;;;;24.45;15.15;;;;;;;;;;5058415;28;20028;-92
2022/11/12 07:51:17;;;;;;;16.65;11.95;;;;;;;;;;5057736;28;20021;-90
2022/11/12 07:53:44;;;;;;;18.95;13.02;;;;;;;;;;5057722;28;20032;-93
2022/11/12 07:56:11;;;;;;;18.23;13.05;;;;;;;;;;5057466;28;20480;-92
2022/11/12 07:58:37;;;;;;;14.10;10.50;;;;;;;;;;5057328;28;20028;-92
2022/11/12 08:01:07;;;;;;;14.32;9.88;;;;;;;;;;5039614;28;20045;-92
2022/11/12 08:03:33;;;;;;;14.00;9.27;;;;;;;;;;5037208;28;20041;-92
2022/11/12 08:06:00;;;;;;;11.30;7.72;;;;;;;;;;5036831;28;20025;-95
2022/11/12 08:08:26;;;;;;;11.00;7.18;;;;;;;;;;5037716;28;20032;-93
2022/11/12 08:11:01;;;;;;;9.77;7.13;;;;;;;;;;5038359;28;20421;-95
2022/11/12 08:13:27;;;;;;;10.98;6.80;;;;;;;;;;5038338;28;20036;-94
2022/11/12 08:15:57;;;;;;;14.00;6.88;;;;;;;;;;5037283;28;20024;-92
2022/11/12 08:18:23;;;;;;;15.18;6.63;;;;;;;;;;5037005;28;20032;-92
2022/11/12 08:20:49;;;;;;;12.23;5.95;;;;;;;;;;5037643;28;20104;-93
2022/11/12 08:23:15;;;;;;;8.95;4.85;;;;;;;;;;5036304;28;20040;-94
2022/11/12 08:25:42;;;;;;;11.40;5.10;;;;;;;;;;5037459;28;20021;-96
2022/11/12 08:28:08;;;;;;;9.63;5.32;;;;;;;;;;5037668;28;20474;-96
2022/11/12 08:30:35;;;;;;;8.77;4.82;;;;;;;;;;5037311;28;20033;-93
2022/11/12 08:33:04;;;;;;;4.82;3.42;;;;;;;;;;5036701;28;20032;-94
2022/11/12 08:35:30;;;;;;;3.67;1.80;;;;;;;;;;5036750;28;20036;-94
2022/11/12 08:38:00;;;;;;;3.72;1.50;;;;;;;;;;5036705;28;20459;-92
2022/11/12 08:40:27;;;;;;;3.08;1.50;;;;;;;;;;5036888;28;20025;-90
2022/11/12 08:42:57;;;;;;;3.03;1.60;;;;;;;;;;5036443;28;20091;-93
2022/11/12 08:45:24;;;;;;;3.65;1.45;;;;;;;;;;5036456;28;20477;-92
2022/11/12 08:47:51;;;;;;;2.67;1.27;;;;;;;;;;5036442;28;20021;-94
2022/11/12 08:50:17;;;;;;;6.60;2.05;;;;;;;;;;5036389;28;20116;-93
2022/11/12 08:52:43;;;;;;;3.78;1.70;;;;;;;;;;5036335;28;20035;-91
2022/11/12 08:55:12;;;;;;;3.35;1.75;;;;;;;;;;5017360;28;20036;-96
2022/11/12 08:57:41;;;;;;;4.55;1.50;;;;;;;;;;5016699;28;20493;-93
2022/11/12 09:00:12;;;;;;;3.28;1.45;;;;;;;;;;5027756;28;20068;-94
2022/11/12 09:02:44;;;;;;;6.88;3.65;;;;;;;;;;5022974;28;20037;-96
2022/11/12 09:05:11;;;;;;;6.78;4.35;;;;;;;;;;5038894;28;20108;-95
2022/11/12 09:07:37;;;;;;;25.30;18.60;;;;;;;;;;5037528;28;20025;-92
2022/11/12 09:10:05;;;;;;;55.08;33.17;;;;;;;;;;5036536;28;20025;-92
2022/11/12 09:12:31;;;;;;;32.67;20.92;;;;;;;;;;5040641;28;20040;-93
2022/11/12 09:14:57;;;;;;;33.75;21.35;;;;;;;;;;5038662;28;20017;-96
2022/11/12 09:17:23;;;;;;;34.67;22.63;;;;;;;;;;5036790;28;20025;-93
2022/11/12 09:19:50;;;;;;;12.98;10.27;;;;;;;;;;5042420;28;20487;-93
2022/11/12 09:22:17;;;;;;;13.30;10.55;;;;;;;;;;5041489;28;20063;-95
2022/11/12 09:24:43;;;;;;;31.90;22.63;;;;;;;;;;5041605;28;20079;-96
2022/11/12 09:27:13;;;;;;;15.57;12.73;;;;;;;;;;5041164;28;20053;-93
2022/11/12 09:29:39;;;;;;;26.08;19.20;;;;;;;;;;5024191;28;20033;-94
2022/11/12 09:32:05;;;;;;;17.77;14.63;;;;;;;;;;5041813;28;20082;-92
2022/11/12 09:34:31;;;;;;;43.85;35.55;;;;;;;;;;5039938;28;20025;-92
2022/11/12 09:39:42;;;;;;;14.35;11.90;;;;;;;;;;5093847;22;20150;-92
2022/11/12 09:42:12;;;;;;;14.23;12.45;;;;;;;;;;5062636;28;20024;-91
2022/11/12 09:44:48;;;;;;;17.10;13.65;;;;;;;;;;5061990;28;20075;-96
2022/11/12 09:47:22;;;;;;;15.60;13.20;;;;;;;;;;5072713;28;20025;-92
2022/11/12 09:50:12;;;;;;;14.52;12.23;;;;;;;;;;5059942;28;20029;-92
2022/11/12 09:52:39;;;;;;;15.50;13.63;;;;;;;;;;5014974;28;20047;-93
2022/11/12 09:55:11;;;;;;;18.42;15.55;;;;;;;;;;5060370;28;20044;-92
2022/11/12 09:57:37;;;;;;;22.30;15.82;;;;;;;;;;5060286;28;20040;-92
2022/11/12 10:00:14;;;;;;;16.60;14.18;;;;;;;;;;5060699;28;20016;-92
2022/11/12 10:02:51;;;;;;;21.17;17.40;;;;;;;;;;5060047;28;20028;-92
2022/11/12 10:05:21;;;;;;;21.42;17.55;;;;;;;;;;5059698;28;20075;-92
2022/11/12 10:07:47;;;;;;;19.63;17.50;;;;;;;;;;5056468;28;20078;-92
2022/11/12 10:10:18;;;;;;;21.70;17.25;;;;;;;;;;5059629;28;20120;-92
2022/11/12 10:12:53;;;;;;;17.95;15.25;;;;;;;;;;5060114;28;20059;-93
2022/11/12 10:18:23;;;;;;;18.75;14.82;;;;;;;;;;5077668;28;20503;-93
2022/11/12 10:20:49;;;;;;;16.98;14.63;;;;;;;;;;5065755;28;20017;-93
2022/11/12 10:23:20;;;;;;;18.52;12.77;;;;;;;;;;5059889;28;20055;-95
2022/11/12 10:25:48;;;;;;;15.75;12.18;;;;;;;;;;5060555;28;20074;-91
2022/11/12 10:28:37;;;;;;;17.70;12.95;;;;;;;;;;5059869;28;20029;-93
2022/11/12 10:31:30;;;;;;;17.33;14.40;;;;;;;;;;5052205;28;20036;-96
2022/11/12 10:34:16;;;;;;;14.50;12.55;;;;;;;;;;5058833;28;20094;-91
2022/11/12 10:36:48;;;;;;;18.05;13.55;;;;;;;;;;5060949;28;20039;-92
2022/11/12 10:39:33;;;;;;;18.35;12.85;;;;;;;;;;5056344;28;20040;-95
2022/11/12 10:42:13;;;;;;;12.48;10.90;;;;;;;;;;5059367;28;20056;-96
2022/11/12 10:44:41;;;;;;;16.02;11.45;;;;;;;;;;5040625;28;20476;-93
2022/11/12 10:47:21;;;;;;;16.15;11.55;;;;;;;;;;5057792;28;20093;-92
2022/11/12 10:50:18;;;;;;;15.60;11.63;;;;;;;;;;5061020;28;20029;-92
2022/11/12 10:53:03;;;;;;;12.13;9.30;;;;;;;;;;5034996;28;20083;-91
2022/11/12 10:55:34;;;;;;;12.55;8.45;;;;;;;;;;5055787;28;20032;-92
2022/11/12 10:58:06;;;;;;;12.90;9.65;;;;;;;;;;5055662;28;20025;-94
2022/11/12 11:00:33;;;;;;;13.02;8.43;;;;;;;;;;5055043;28;20064;-93
2022/11/12 11:05:40;;;;;;;12.85;8.25;;;;;;;;;;5076773;28;20116;-94
2022/11/12 11:08:06;;;;;;;13.30;9.25;;;;;;;;;;5063915;28;20028;-93
2022/11/12 11:10:36;;;;;;;14.02;10.00;;;;;;;;;;5058304;28;20112;-91
2022/11/12 11:13:21;;;;;;;12.65;10.18;;;;;;;;;;5058939;28;20036;-91
2022/11/12 11:15:59;;;;;;;14.13;11.05;;;;;;;;;;5058074;28;20021;-91
2022/11/12 11:18:26;;;;;;;17.20;10.82;;;;;;;;;;5059763;28;20031;-91
2022/11/12 11:20:57;;;;;;;17.38;12.38;;;;;;;;;;5059035;28;20028;-89
2022/11/12 11:23:28;;;;;;;15.93;12.20;;;;;;;;;;5059060;28;20501;-91
2022/11/12 11:25:57;;;;;;;12.40;10.80;;;;;;;;;;5058050;28;20085;-91
2022/11/12 11:28:24;;;;;;;14.02;10.38;;;;;;;;;;5058676;28;20029;-93
2022/11/12 11:31:22;;;;;;;13.52;10.40;;;;;;;;;;5057907;28;20063;-91
2022/11/12 11:33:53;;;;;;;12.90;11.20;;;;;;;;;;5004100;28;20046;-91
2022/11/12 11:36:28;;;;;;;13.25;11.00;;;;;;;;;;5057808;28;20027;-92
2022/11/12 11:38:58;;;;;;;11.45;9.82;;;;;;;;;;5058176;28;20029;-94
2022/11/12 11:41:43;;;;;;;16.00;11.23;;;;;;;;;;5058860;28;20029;-93
2022/11/12 11:44:21;;;;;;;12.35;10.77;;;;;;;;;;5057184;28;20381;-92
2022/11/12 11:46:50;;;;;;;20.98;11.38;;;;;;;;;;5057440;28;20490;-91
2022/11/12 11:49:31;;;;;;;14.93;10.50;;;;;;;;;;5057524;28;20031;-92
2022/11/12 11:52:01;;;;;;;15.75;12.32;;;;;;;;;;5057277;28;20024;-92
2022/11/12 11:54:27;;;;;;;13.35;9.90;;;;;;;;;;5057434;28;20028;-93
2022/11/12 11:56:56;;;;;;;20.52;11.13;;;;;;;;;;5057279;28;20029;-91
2022/11/12 11:59:31;;;;;;;14.00;11.52;;;;;;;;;;5057043;28;20048;-93
2022/11/12 12:02:16;;;;;;;15.23;10.60;;;;;;;;;;5057373;28;20118;-92
2022/11/12 12:04:47;;;;;;;15.68;11.73;;;;;;;;;;5044219;28;20049;-91
2022/11/12 12:07:16;;;;;;;16.42;11.10;;;;;;;;;;5037052;28;20025;-94
2022/11/12 12:09:51;;;;;;;16.92;10.80;;;;;;;;;;5036911;28;20029;-91
2022/11/12 12:12:43;;;;;;;12.30;10.45;;;;;;;;;;5037261;28;20389;-91
2022/11/12 12:15:28;;;;;;;14.93;11.55;;;;;;;;;;5000191;28;20076;-92
2022/11/12 12:17:56;;;;;;;18.75;12.65;;;;;;;;;;5036768;28;20056;-90
2022/11/12 12:20:22;;;;;;;16.92;13.02;;;;;;;;;;5036929;28;20032;-92
2022/11/12 12:22:51;;;;;;;13.23;11.23;;;;;;;;;;5037161;28;20123;-94
2022/11/12 12:25:21;;;;;;;14.80;11.70;;;;;;;;;;5036723;28;20102;-91
2022/11/12 12:27:59;;;;;;;16.00;12.40;;;;;;;;;;5036920;28;20112;-92
2022/11/12 12:30:26;;;;;;;15.25;12.35;;;;;;;;;;5037913;28;20032;-92
2022/11/12 12:32:58;;;;;;;19.38;13.63;;;;;;;;;;5036869;28;20060;-91
2022/11/12 12:35:50;;;;;;;18.65;13.77;;;;;;;;;;5036696;28;20393;-93
2022/11/12 12:38:31;;;;;;;16.30;13.27;;;;;;;;;;5036654;28;20517;-91
2022/11/12 12:41:00;;;;;;;14.65;11.38;;;;;;;;;;5036586;28;20090;-91
2022/11/12 12:43:26;;;;;;;14.48;11.00;;;;;;;;;;5036716;28;20082;-92
2022/11/12 12:45:53;;;;;;;13.25;10.13;;;;;;;;;;5036414;28;20087;-89
2022/11/12 12:48:31;;;;;;;14.98;10.95;;;;;;;;;;5036438;28;20029;-90
2022/11/12 12:50:57;;;;;;;14.52;10.38;;;;;;;;;;5036317;28;20106;-90
2022/11/12 12:53:29;;;;;;;13.75;11.07;;;;;;;;;;5035614;28;20029;-92
2022/11/12 12:55:57;;;;;;;13.30;10.30;;;;;;;;;;5036431;28;20036;-93
2022/11/12 12:58:31;;;;;;;13.55;10.35;;;;;;;;;;5036350;28;20045;-91
2022/11/12 13:01:21;;;;;;;14.15;10.18;;;;;;;;;;5036409;28;20029;-92
2022/11/12 13:03:57;;;;;;;14.13;10.77;;;;;;;;;;5024103;28;20053;-91
2022/11/12 13:06:26;;;;;;;14.23;10.43;;;;;;;;;;5036427;28;20592;-92
2022/11/12 13:09:01;;;;;;;12.88;9.30;;;;;;;;;;5036210;28;20021;-90
2022/11/12 13:14:34;;;;;;;15.45;10.57;;;;;;;;;;5051206;28;20025;-89
2022/11/12 13:17:01;;;;;;;16.75;12.60;;;;;;;;;;5037034;28;20051;-88
2022/11/12 13:19:33;;;;;;;16.13;12.15;;;;;;;;;;5036512;28;20072;-89
2022/11/12 13:22:25;;;;;;;20.38;12.30;;;;;;;;;;5036015;28;20501;-90
2022/11/12 13:25:04;;;;;;;17.10;12.73;;;;;;;;;;4993102;28;20477;-91
2022/11/12 13:27:50;;;;;;;20.08;13.18;;;;;;;;;;5036208;28;20116;-91
2022/11/12 13:30:16;;;;;;;21.65;16.23;;;;;;;;;;5035665;28;20029;-92
2022/11/12 13:32:51;;;;;;;20.48;17.13;;;;;;;;;;5035896;28;20017;-93
2022/11/12 13:35:17;;;;;;;22.17;17.00;;;;;;;;;;5036253;28;20472;-92
2022/11/12 13:37:44;;;;;;;25.95;18.55;;;;;;;;;;5036149;28;20021;-92
2022/11/12 13:40:13;;;;;;;35.58;29.00;;;;;;;;;;5036180;28;20064;-92
2022/11/12 13:42:48;;;;;;;32.22;24.98;;;;;;;;;;5036285;28;20068;-92
2022/11/12 13:45:15;;;;;;;28.92;19.30;;;;;;;;;;5036432;28;20029;-94
2022/11/12 13:47:42;;;;;;;27.60;19.75;;;;;;;;;;5036588;28;20027;-94
2022/11/12 13:50:13;;;;;;;27.23;20.38;;;;;;;;;;5036552;28;20036;-94
2022/11/12 13:52:40;;;;;;;26.65;21.77;;;;;;;;;;5038201;28;20043;-96
2022/11/12 13:55:09;;;;;;;28.67;22.05;;;;;;;;;;5036299;28;20074;-93
2022/11/12 13:57:36;;;;;;;35.70;26.05;;;;;;;;;;5036094;28;20481;-95
2022/11/12 14:00:20;;;;;;;32.35;23.67;;;;;;;;;;5035801;28;20040;-93
2022/11/12 14:02:58;;;;;;;31.73;22.15;;;;;;;;;;5036608;28;20029;-93
2022/11/12 14:05:34;;;;;;;31.08;23.58;;;;;;;;;;5052897;28;20127;-93
2022/11/12 14:08:15;;;;;;;32.25;24.40;;;;;;;;;;5056830;28;20025;-95
2022/11/12 14:11:00;;;;;;;33.42;23.73;;;;;;;;;;5064840;28;20017;-91
2022/11/12 14:13:45;;;;;;;33.50;24.10;;;;;;;;;;5073911;28;20466;-95
2022/11/12 14:16:30;;;;;;;28.88;21.73;;;;;;;;;;5058435;28;20025;-93
2022/11/12 14:19:18;;;;;;;36.53;23.02;;;;;;;;;;5055735;28;20013;-93
2022/11/12 14:21:57;;;;;;;33.15;22.88;;;;;;;;;;5055664;28;20040;-93
2022/11/12 14:24:23;;;;;;;32.28;21.88;;;;;;;;;;5055750;28;20064;-93
2022/11/12 14:26:50;;;;;;;33.55;23.15;;;;;;;;;;5055681;28;20051;-96
2022/11/12 14:29:17;;;;;;;33.03;23.10;;;;;;;;;;5056153;28;20029;-95
2022/11/12 14:31:43;;;;;;;35.47;23.65;;;;;;;;;;5055513;28;20601;-94
2022/11/12 14:34:26;;;;;;;32.28;23.30;;;;;;;;;;5055966;28;20074;-93
2022/11/12 14:36:54;;;;;;;30.17;22.45;;;;;;;;;;5055776;28;20028;-95
2022/11/12 14:39:22;;;;;;;32.22;23.10;;;;;;;;;;5055980;28;20397;-94
2022/11/12 14:41:49;;;;;;;34.53;23.70;;;;;;;;;;5055633;28;20037;-93
2022/11/12 14:44:19;;;;;;;38.50;25.88;;;;;;;;;;5055944;28;20064;-93
2022/11/12 14:46:46;;;;;;;37.97;25.75;;;;;;;;;;5055513;28;20572;-93
2022/11/12 14:49:28;;;;;;;37.38;26.55;;;;;;;;;;5055193;28;20024;-95
2022/11/12 14:51:56;;;;;;;38.13;25.50;;;;;;;;;;5055396;28;20052;-96
2022/11/12 14:54:45;;;;;;;38.88;27.25;;;;;;;;;;5055466;28;20033;-93
2022/11/12 14:57:17;;;;;;;40.45;27.33;;;;;;;;;;5055025;28;20017;-95
2022/11/12 14:59:43;;;;;;;44.15;29.27;;;;;;;;;;5055039;28;20036;-93
2022/11/12 15:02:13;;;;;;;40.75;27.95;;;;;;;;;;5055019;28;20436;-93
2022/11/12 15:04:53;;;;;;;41.95;28.23;;;;;;;;;;5055083;28;20049;-93
2022/11/12 15:07:31;;;;;;;45.88;32.38;;;;;;;;;;5055221;28;20049;-94
2022/11/12 15:09:57;;;;;;;168.60;73.70;;;;;;;;;;5054863;28;20377;-94
2022/11/12 15:12:27;;;;;;;80.22;41.00;;;;;;;;;;5055228;28;20033;-95
2022/11/12 15:14:53;;;;;;;55.83;35.47;;;;;;;;;;5055096;28;20476;-94
2022/11/12 15:17:28;;;;;;;64.30;40.08;;;;;;;;;;5053852;28;20112;-95
2022/11/12 15:19:59;;;;;;;59.08;38.47;;;;;;;;;;5055294;28;20025;-93
2022/11/12 15:22:26;;;;;;;53.50;35.67;;;;;;;;;;5054871;28;20026;-96
2022/11/12 15:24:52;;;;;;;51.33;35.17;;;;;;;;;;5054668;28;20468;-95
2022/11/12 15:27:48;;;;;;;48.70;31.67;;;;;;;;;;5054970;28;20381;-95
2022/11/12 15:30:19;;;;;;;61.50;37.40;;;;;;;;;;5037992;28;20067;-93